Time,TemperatureF,DewpointF,PressureIn,WindDirection,WindDirectionDegrees,WindSpeedMPH,WindSpeedGustMPH,Humidity,HourlyPrecipIn,Conditions,Clouds,dailyrainin,SoftwareType,DateUTC
2013-11-08 10:00:00,36.9,29.3,30.21,WNW,291,5.3,20.6,74,-99.99,,,0.00,VWS V14.01,2013-11-08 15:00:00,
2013-11-08 10:30:00,37.5,29.5,30.22,NW,307,4.9,14.4,72,-99.99,,,0.00,VWS V14.01,2013-11-08 15:30:00,
2013-11-08 11:00:00,37.8,28.3,30.23,West,276,10.2,16.4,68,-99.99,,,0.00,VWS V14.01,2013-11-08 16:00:00,
2013-11-08 11:30:00,38.9,27.9,30.22,West,259,0.0,20.9,64,-99.99,,,0.00,VWS V14.01,2013-11-08 16:30:00,
2013-11-08 12:00:00,39.6,26.6,30.21,West,281,8.9,20.1,59,-99.99,,,0.00,VWS V14.01,2013-11-08 17:00:00,
2013-11-08 12:30:00,40.0,26.6,30.21,SSW,210,4.8,16.5,58,-99.99,,,0.00,VWS V14.01,2013-11-08 17:30:00,
2013-11-08 13:00:00,40.9,27.2,30.21,West,260,9.1,21.5,58,-99.99,,,0.00,VWS V14.01,2013-11-08 18:00:00,
2013-11-08 13:30:00,40.5,26.4,30.22,NW,325,3.9,23.6,57,-99.99,,,0.00,VWS V14.01,2013-11-08 18:30:00,
2013-11-08 14:00:00,41.4,26.9,30.23,WNW,284,9.0,19.7,56,-99.99,,,0.00,VWS V14.01,2013-11-08 19:00:00,
2013-11-08 14:30:00,41.8,26.7,30.23,West,263,0.0,13.9,55,-99.99,,,0.00,VWS V14.01,2013-11-08 19:30:00,
2013-11-08 15:00:00,40.8,26.8,30.24,WNW,297,8.9,20.4,57,-99.99,,,0.00,VWS V14.01,2013-11-08 20:00:00,
2013-11-08 15:30:00,41.0,27.6,30.23,WSW,255,0.0,17.7,59,-99.99,,,0.00,VWS V14.01,2013-11-08 20:30:00,
2013-11-08 16:00:00,40.4,27.1,30.25,West,274,0.0,18.2,59,-99.99,,,0.00,VWS V14.01,2013-11-08 21:00:00,
2013-11-08 16:30:00,40.1,27.0,30.25,SW,235,0.0,12.1,59,-99.99,,,0.00,VWS V14.01,2013-11-08 21:30:00,
2013-11-08 17:00:00,39.8,26.8,30.25,NW,305,5.2,11.0,59,-99.99,,,0.00,VWS V14.01,2013-11-08 22:00:00,
2013-11-08 17:30:00,39.6,27.0,30.25,NW,305,0.0,5.2,60,-99.99,,,0.00,VWS V14.01,2013-11-08 22:30:00,
2013-11-08 18:00:00,38.9,26.6,30.26,NW,305,0.0,0.0,61,-99.99,,,0.00,VWS V14.01,2013-11-08 23:00:00,
2013-11-08 18:30:00,38.8,26.5,30.27,NW,305,0.0,3.4,61,-99.99,,,0.00,VWS V14.01,2013-11-08 23:30:00,
2013-11-08 19:00:00,38.3,26.8,30.27,NW,305,0.0,0.0,63,-99.99,,,0.00,VWS V14.01,2013-11-09 00:00:00,
2013-11-08 19:30:00,37.8,27.0,30.27,NW,305,0.0,0.0,65,-99.99,,,0.00,VWS V14.01,2013-11-09 00:30:00,
2013-11-08 20:00:00,37.4,26.9,30.28,NW,305,0.0,0.0,65,-99.99,,,0.00,VWS V14.01,2013-11-09 01:00:00,
2013-11-08 20:30:00,37.1,26.9,30.28,NW,305,0.0,0.0,66,-99.99,,,0.00,VWS V14.01,2013-11-09 01:30:00,
2013-11-08 21:00:00,36.7,27.4,30.28,NW,305,0.0,0.0,69,-99.99,,,0.00,VWS V14.01,2013-11-09 02:00:00,
2013-11-08 21:30:00,35.7,27.1,30.28,NW,305,0.0,0.0,71,-99.99,,,0.00,VWS V14.01,2013-11-09 02:30:00,
2013-11-08 22:00:00,35.3,27.7,30.29,NW,305,0.0,0.0,73,-99.99,,,0.00,VWS V14.01,2013-11-09 03:00:00,